sensor_id;sensor_type;location;lat;lon;timestamp;P1;durP1;ratioP1;P2;durP2;ratioP2
1977;SDS011;989;53.016;8.346;2023-06-22T00:01:50;31.40;;;19.70;;
1977;SDS011;989;53.016;8.346;2023-06-22T00:04:16;28.13;;;16.80;;
1977;SDS011;989;53.016;8.346;2023-06-22T00:06:42;29.00;;;18.90;;
1977;SDS011;989;53.016;8.346;2023-06-22T00:09:08;27.20;;;17.10;;
1977;SDS011;989;53.016;8.346;2023-06-22T00:11:35;30.27;;;18.10;;
1977;SDS011;989;53.016;8.346;2023-06-22T00:14:02;31.23;;;18.27;;
1977;SDS011;989;53.016;8.346;2023-06-22T00:16:29;26.10;;;15.97;;
1977;SDS011;989;53.016;8.346;2023-06-22T00:18:56;23.53;;;15.40;;
1977;SDS011;989;53.016;8.346;2023-06-22T00:21:25;29.63;;;14.63;;
1977;SDS011;989;53.016;8.346;2023-06-22T00:23:51;30.20;;;15.83;;
1977;SDS011;989;53.016;8.346;2023-06-22T00:26:18;28.20;;;17.20;;
1977;SDS011;989;53.016;8.346;2023-06-22T00:28:44;29.00;;;18.23;;
1977;SDS011;989;53.016;8.346;2023-06-22T00:31:10;29.20;;;17.90;;
1977;SDS011;989;53.016;8.346;2023-06-22T00:33:36;28.80;;;17.67;;
1977;SDS011;989;53.016;8.346;2023-06-22T00:36:03;27.10;;;16.90;;
1977;SDS011;989;53.016;8.346;2023-06-22T00:38:29;31.23;;;19.83;;
1977;SDS011;989;53.016;8.346;2023-06-22T00:40:55;31.07;;;19.47;;
1977;SDS011;989;53.016;8.346;2023-06-22T00:43:21;31.43;;;17.93;;
1977;SDS011;989;53.016;8.346;2023-06-22T00:45:47;33.10;;;19.10;;
1977;SDS011;989;53.016;8.346;2023-06-22T00:48:13;42.43;;;20.17;;
1977;SDS011;989;53.016;8.346;2023-06-22T00:50:40;37.20;;;20.23;;
1977;SDS011;989;53.016;8.346;2023-06-22T00:53:07;36.37;;;23.20;;
1977;SDS011;989;53.016;8.346;2023-06-22T00:55:38;34.53;;;20.43;;
1977;SDS011;989;53.016;8.346;2023-06-22T00:58:12;34.90;;;20.40;;
1977;SDS011;989;53.016;8.346;2023-06-22T01:00:39;37.90;;;22.80;;
1977;SDS011;989;53.016;8.346;2023-06-22T01:03:06;36.17;;;21.17;;
1977;SDS011;989;53.016;8.346;2023-06-22T01:05:34;38.73;;;20.90;;
1977;SDS011;989;53.016;8.346;2023-06-22T01:08:05;39.63;;;22.80;;
1977;SDS011;989;53.016;8.346;2023-06-22T01:10:36;40.33;;;21.77;;
1977;SDS011;989;53.016;8.346;2023-06-22T01:13:16;31.27;;;19.77;;
1977;SDS011;989;53.016;8.346;2023-06-22T01:18:39;35.67;;;20.87;;
1977;SDS011;989;53.016;8.346;2023-06-22T01:21:06;48.73;;;24.20;;
1977;SDS011;989;53.016;8.346;2023-06-22T01:26:43;42.50;;;22.70;;
1977;SDS011;989;53.016;8.346;2023-06-22T01:29:31;35.80;;;19.73;;
1977;SDS011;989;53.016;8.346;2023-06-22T01:31:59;40.53;;;21.90;;
1977;SDS011;989;53.016;8.346;2023-06-22T01:34:26;42.63;;;22.47;;
1977;SDS011;989;53.016;8.346;2023-06-22T01:36:53;37.10;;;19.90;;
1977;SDS011;989;53.016;8.346;2023-06-22T01:39:20;39.77;;;22.33;;
1977;SDS011;989;53.016;8.346;2023-06-22T01:41:47;40.60;;;21.80;;
1977;SDS011;989;53.016;8.346;2023-06-22T01:44:13;47.30;;;23.10;;
1977;SDS011;989;53.016;8.346;2023-06-22T01:46:40;37.47;;;20.27;;
1977;SDS011;989;53.016;8.346;2023-06-22T01:49:06;34.80;;;19.57;;
1977;SDS011;989;53.016;8.346;2023-06-22T01:51:33;37.87;;;22.70;;
1977;SDS011;989;53.016;8.346;2023-06-22T01:53:59;36.57;;;21.97;;
1977;SDS011;989;53.016;8.346;2023-06-22T01:56:26;44.30;;;23.50;;
1977;SDS011;989;53.016;8.346;2023-06-22T02:01:42;40.33;;;23.60;;
1977;SDS011;989;53.016;8.346;2023-06-22T02:04:11;44.87;;;24.57;;
1977;SDS011;989;53.016;8.346;2023-06-22T02:06:42;40.37;;;24.60;;
1977;SDS011;989;53.016;8.346;2023-06-22T02:09:09;49.60;;;24.73;;
1977;SDS011;989;53.016;8.346;2023-06-22T02:11:40;41.27;;;23.07;;
1977;SDS011;989;53.016;8.346;2023-06-22T02:14:07;47.40;;;22.87;;
1977;SDS011;989;53.016;8.346;2023-06-22T02:16:34;42.43;;;25.23;;
1977;SDS011;989;53.016;8.346;2023-06-22T02:19:02;53.77;;;26.10;;
1977;SDS011;989;53.016;8.346;2023-06-22T02:21:29;55.10;;;29.70;;
1977;SDS011;989;53.016;8.346;2023-06-22T02:23:56;47.30;;;27.33;;
1977;SDS011;989;53.016;8.346;2023-06-22T02:26:22;58.40;;;27.97;;
1977;SDS011;989;53.016;8.346;2023-06-22T02:28:50;65.13;;;28.10;;
1977;SDS011;989;53.016;8.346;2023-06-22T02:31:16;53.10;;;26.60;;
1977;SDS011;989;53.016;8.346;2023-06-22T02:33:42;54.40;;;26.70;;
1977;SDS011;989;53.016;8.346;2023-06-22T02:36:09;56.53;;;27.27;;
1977;SDS011;989;53.016;8.346;2023-06-22T02:38:38;53.33;;;24.77;;
1977;SDS011;989;53.016;8.346;2023-06-22T02:41:13;55.27;;;28.43;;
1977;SDS011;989;53.016;8.346;2023-06-22T02:43:43;47.10;;;25.47;;
1977;SDS011;989;53.016;8.346;2023-06-22T02:46:10;61.00;;;28.80;;
1977;SDS011;989;53.016;8.346;2023-06-22T02:48:37;60.20;;;30.80;;
1977;SDS011;989;53.016;8.346;2023-06-22T02:51:04;57.43;;;28.60;;
1977;SDS011;989;53.016;8.346;2023-06-22T02:53:30;54.20;;;28.77;;
1977;SDS011;989;53.016;8.346;2023-06-22T02:55:57;56.90;;;29.50;;
1977;SDS011;989;53.016;8.346;2023-06-22T02:58:23;63.30;;;28.80;;
1977;SDS011;989;53.016;8.346;2023-06-22T03:00:49;48.13;;;26.27;;
1977;SDS011;989;53.016;8.346;2023-06-22T03:03:19;50.70;;;28.17;;
1977;SDS011;989;53.016;8.346;2023-06-22T03:05:45;43.50;;;24.30;;
1977;SDS011;989;53.016;8.346;2023-06-22T03:08:11;47.97;;;25.50;;
1977;SDS011;989;53.016;8.346;2023-06-22T03:10:37;56.93;;;27.27;;
1977;SDS011;989;53.016;8.346;2023-06-22T03:13:03;51.47;;;27.00;;
1977;SDS011;989;53.016;8.346;2023-06-22T03:15:30;59.53;;;29.07;;
1977;SDS011;989;53.016;8.346;2023-06-22T03:17:57;53.07;;;25.87;;
1977;SDS011;989;53.016;8.346;2023-06-22T03:20:23;55.00;;;25.37;;
1977;SDS011;989;53.016;8.346;2023-06-22T03:22:51;53.77;;;27.10;;
1977;SDS011;989;53.016;8.346;2023-06-22T03:25:18;54.67;;;27.47;;
1977;SDS011;989;53.016;8.346;2023-06-22T03:27:44;54.83;;;30.00;;
1977;SDS011;989;53.016;8.346;2023-06-22T03:30:10;49.30;;;25.83;;
1977;SDS011;989;53.016;8.346;2023-06-22T03:32:37;47.97;;;28.20;;
1977;SDS011;989;53.016;8.346;2023-06-22T03:35:03;66.30;;;29.87;;
1977;SDS011;989;53.016;8.346;2023-06-22T03:37:31;61.07;;;30.97;;
1977;SDS011;989;53.016;8.346;2023-06-22T03:39:57;59.23;;;29.97;;
1977;SDS011;989;53.016;8.346;2023-06-22T03:42:23;51.30;;;29.00;;
1977;SDS011;989;53.016;8.346;2023-06-22T03:44:49;60.83;;;29.43;;
1977;SDS011;989;53.016;8.346;2023-06-22T03:47:15;58.83;;;30.27;;
1977;SDS011;989;53.016;8.346;2023-06-22T03:49:42;52.87;;;26.40;;
1977;SDS011;989;53.016;8.346;2023-06-22T03:52:08;48.43;;;27.57;;
1977;SDS011;989;53.016;8.346;2023-06-22T03:54:35;43.27;;;25.27;;
1977;SDS011;989;53.016;8.346;2023-06-22T03:57:01;43.50;;;23.50;;
1977;SDS011;989;53.016;8.346;2023-06-22T03:59:28;41.00;;;21.90;;
1977;SDS011;989;53.016;8.346;2023-06-22T04:01:54;39.37;;;21.60;;
1977;SDS011;989;53.016;8.346;2023-06-22T04:04:20;41.27;;;22.80;;
1977;SDS011;989;53.016;8.346;2023-06-22T04:06:46;45.13;;;24.13;;
1977;SDS011;989;53.016;8.346;2023-06-22T04:09:12;48.20;;;24.17;;
1977;SDS011;989;53.016;8.346;2023-06-22T04:11:38;38.57;;;23.93;;
1977;SDS011;989;53.016;8.346;2023-06-22T04:14:04;42.37;;;21.73;;
1977;SDS011;989;53.016;8.346;2023-06-22T04:16:30;44.93;;;25.93;;
1977;SDS011;989;53.016;8.346;2023-06-22T04:18:56;44.30;;;25.60;;
1977;SDS011;989;53.016;8.346;2023-06-22T04:21:22;43.97;;;25.87;;
1977;SDS011;989;53.016;8.346;2023-06-22T04:23:48;43.40;;;24.83;;
1977;SDS011;989;53.016;8.346;2023-06-22T04:26:14;37.33;;;22.40;;
1977;SDS011;989;53.016;8.346;2023-06-22T04:28:41;42.70;;;23.80;;
1977;SDS011;989;53.016;8.346;2023-06-22T04:31:07;47.87;;;26.67;;
1977;SDS011;989;53.016;8.346;2023-06-22T04:33:33;37.80;;;23.30;;
1977;SDS011;989;53.016;8.346;2023-06-22T04:35:59;35.20;;;22.87;;
1977;SDS011;989;53.016;8.346;2023-06-22T04:38:28;35.27;;;21.60;;
1977;SDS011;989;53.016;8.346;2023-06-22T04:40:58;38.27;;;23.40;;
1977;SDS011;989;53.016;8.346;2023-06-22T04:43:26;32.50;;;19.43;;
1977;SDS011;989;53.016;8.346;2023-06-22T04:45:55;36.97;;;20.73;;
1977;SDS011;989;53.016;8.346;2023-06-22T04:48:28;34.03;;;20.30;;
1977;SDS011;989;53.016;8.346;2023-06-22T04:50:57;33.43;;;20.30;;
1977;SDS011;989;53.016;8.346;2023-06-22T04:53:28;30.73;;;19.70;;
1977;SDS011;989;53.016;8.346;2023-06-22T04:55:54;29.30;;;19.20;;
1977;SDS011;989;53.016;8.346;2023-06-22T04:58:21;26.77;;;17.70;;
1977;SDS011;989;53.016;8.346;2023-06-22T05:00:47;25.67;;;16.93;;
1977;SDS011;989;53.016;8.346;2023-06-22T05:03:16;25.10;;;16.43;;
1977;SDS011;989;53.016;8.346;2023-06-22T05:05:43;24.50;;;16.60;;
1977;SDS011;989;53.016;8.346;2023-06-22T05:08:09;23.00;;;15.20;;
1977;SDS011;989;53.016;8.346;2023-06-22T05:10:38;32.60;;;17.20;;
1977;SDS011;989;53.016;8.346;2023-06-22T05:13:04;22.97;;;14.47;;
1977;SDS011;989;53.016;8.346;2023-06-22T05:15:30;22.13;;;14.53;;
1977;SDS011;989;53.016;8.346;2023-06-22T05:18:01;19.20;;;14.20;;
1977;SDS011;989;53.016;8.346;2023-06-22T05:20:30;26.23;;;15.53;;
1977;SDS011;989;53.016;8.346;2023-06-22T05:22:56;27.23;;;15.90;;
1977;SDS011;989;53.016;8.346;2023-06-22T05:25:22;26.10;;;15.13;;
1977;SDS011;989;53.016;8.346;2023-06-22T05:27:48;21.43;;;13.00;;
1977;SDS011;989;53.016;8.346;2023-06-22T05:30:16;21.77;;;14.63;;
1977;SDS011;989;53.016;8.346;2023-06-22T05:32:43;21.40;;;14.10;;
1977;SDS011;989;53.016;8.346;2023-06-22T05:35:09;25.50;;;14.77;;
1977;SDS011;989;53.016;8.346;2023-06-22T05:37:35;22.97;;;12.80;;
1977;SDS011;989;53.016;8.346;2023-06-22T05:40:02;28.47;;;15.83;;
1977;SDS011;989;53.016;8.346;2023-06-22T05:42:29;24.20;;;14.43;;
1977;SDS011;989;53.016;8.346;2023-06-22T05:44:56;19.53;;;12.70;;
1977;SDS011;989;53.016;8.346;2023-06-22T05:47:23;27.90;;;14.90;;
1977;SDS011;989;53.016;8.346;2023-06-22T05:49:49;26.80;;;14.30;;
1977;SDS011;989;53.016;8.346;2023-06-22T05:52:16;25.17;;;13.90;;
1977;SDS011;989;53.016;8.346;2023-06-22T05:54:42;25.17;;;14.47;;
1977;SDS011;989;53.016;8.346;2023-06-22T05:57:09;26.00;;;14.53;;
1977;SDS011;989;53.016;8.346;2023-06-22T05:59:35;24.70;;;15.13;;
1977;SDS011;989;53.016;8.346;2023-06-22T06:02:01;33.47;;;14.90;;
1977;SDS011;989;53.016;8.346;2023-06-22T06:04:27;41.23;;;17.50;;
1977;SDS011;989;53.016;8.346;2023-06-22T06:06:53;24.00;;;14.50;;
1977;SDS011;989;53.016;8.346;2023-06-22T06:09:19;24.80;;;14.70;;
1977;SDS011;989;53.016;8.346;2023-06-22T06:11:45;21.17;;;13.27;;
1977;SDS011;989;53.016;8.346;2023-06-22T06:14:11;22.27;;;14.40;;
1977;SDS011;989;53.016;8.346;2023-06-22T06:16:37;26.33;;;15.50;;
1977;SDS011;989;53.016;8.346;2023-06-22T06:19:03;26.33;;;13.00;;
1977;SDS011;989;53.016;8.346;2023-06-22T06:21:29;25.83;;;12.60;;
1977;SDS011;989;53.016;8.346;2023-06-22T06:23:55;21.13;;;11.30;;
1977;SDS011;989;53.016;8.346;2023-06-22T06:26:21;17.23;;;11.50;;
1977;SDS011;989;53.016;8.346;2023-06-22T06:28:53;19.50;;;11.20;;
1977;SDS011;989;53.016;8.346;2023-06-22T06:31:20;21.70;;;11.33;;
1977;SDS011;989;53.016;8.346;2023-06-22T06:33:46;23.97;;;11.07;;
1977;SDS011;989;53.016;8.346;2023-06-22T06:36:12;17.23;;;9.60;;
1977;SDS011;989;53.016;8.346;2023-06-22T06:38:38;16.30;;;9.30;;
1977;SDS011;989;53.016;8.346;2023-06-22T06:41:04;19.87;;;9.87;;
1977;SDS011;989;53.016;8.346;2023-06-22T06:43:30;20.80;;;9.83;;
1977;SDS011;989;53.016;8.346;2023-06-22T06:45:56;18.13;;;9.43;;
1977;SDS011;989;53.016;8.346;2023-06-22T06:48:22;18.30;;;8.77;;
1977;SDS011;989;53.016;8.346;2023-06-22T06:50:48;16.60;;;8.77;;
1977;SDS011;989;53.016;8.346;2023-06-22T06:53:15;14.90;;;7.90;;
1977;SDS011;989;53.016;8.346;2023-06-22T06:55:41;12.27;;;7.13;;
1977;SDS011;989;53.016;8.346;2023-06-22T06:58:07;16.63;;;8.30;;
1977;SDS011;989;53.016;8.346;2023-06-22T07:00:34;18.63;;;7.13;;
1977;SDS011;989;53.016;8.346;2023-06-22T07:03:00;15.30;;;8.47;;
1977;SDS011;989;53.016;8.346;2023-06-22T07:05:27;13.00;;;8.27;;
1977;SDS011;989;53.016;8.346;2023-06-22T07:07:53;19.40;;;8.60;;
1977;SDS011;989;53.016;8.346;2023-06-22T07:10:19;13.13;;;7.50;;
1977;SDS011;989;53.016;8.346;2023-06-22T07:12:45;11.10;;;7.17;;
1977;SDS011;989;53.016;8.346;2023-06-22T07:15:11;13.57;;;7.50;;
1977;SDS011;989;53.016;8.346;2023-06-22T07:17:38;12.17;;;7.57;;
1977;SDS011;989;53.016;8.346;2023-06-22T07:20:07;15.80;;;7.50;;
1977;SDS011;989;53.016;8.346;2023-06-22T07:22:35;12.40;;;6.20;;
1977;SDS011;989;53.016;8.346;2023-06-22T07:25:02;21.07;;;7.93;;
1977;SDS011;989;53.016;8.346;2023-06-22T07:27:43;14.27;;;6.27;;
1977;SDS011;989;53.016;8.346;2023-06-22T07:30:10;14.23;;;6.63;;
1977;SDS011;989;53.016;8.346;2023-06-22T07:32:37;14.97;;;6.13;;
1977;SDS011;989;53.016;8.346;2023-06-22T07:35:03;10.33;;;5.43;;
1977;SDS011;989;53.016;8.346;2023-06-22T07:37:30;10.30;;;5.47;;
1977;SDS011;989;53.016;8.346;2023-06-22T07:39:58;9.97;;;6.30;;
1977;SDS011;989;53.016;8.346;2023-06-22T07:42:24;8.73;;;5.90;;
1977;SDS011;989;53.016;8.346;2023-06-22T07:44:51;12.27;;;5.73;;
1977;SDS011;989;53.016;8.346;2023-06-22T07:47:18;9.80;;;5.67;;
1977;SDS011;989;53.016;8.346;2023-06-22T07:49:44;10.10;;;4.87;;
1977;SDS011;989;53.016;8.346;2023-06-22T07:52:11;9.83;;;5.27;;
1977;SDS011;989;53.016;8.346;2023-06-22T07:54:37;10.90;;;5.90;;
1977;SDS011;989;53.016;8.346;2023-06-22T07:57:03;8.47;;;4.63;;
1977;SDS011;989;53.016;8.346;2023-06-22T07:59:30;9.00;;;4.97;;
1977;SDS011;989;53.016;8.346;2023-06-22T08:01:56;14.00;;;5.53;;
1977;SDS011;989;53.016;8.346;2023-06-22T08:04:23;8.97;;;5.50;;
1977;SDS011;989;53.016;8.346;2023-06-22T08:06:49;12.73;;;4.83;;
1977;SDS011;989;53.016;8.346;2023-06-22T08:09:15;9.47;;;5.13;;
1977;SDS011;989;53.016;8.346;2023-06-22T08:11:41;10.80;;;4.37;;
1977;SDS011;989;53.016;8.346;2023-06-22T08:14:07;9.87;;;4.43;;
1977;SDS011;989;53.016;8.346;2023-06-22T08:16:33;14.00;;;5.60;;
1977;SDS011;989;53.016;8.346;2023-06-22T08:18:59;10.13;;;4.90;;
1977;SDS011;989;53.016;8.346;2023-06-22T08:21:25;10.17;;;5.10;;
1977;SDS011;989;53.016;8.346;2023-06-22T08:23:51;8.20;;;4.83;;
1977;SDS011;989;53.016;8.346;2023-06-22T08:26:17;11.33;;;4.33;;
1977;SDS011;989;53.016;8.346;2023-06-22T08:28:43;9.30;;;4.53;;
1977;SDS011;989;53.016;8.346;2023-06-22T08:31:09;10.30;;;5.13;;
1977;SDS011;989;53.016;8.346;2023-06-22T08:33:37;10.73;;;4.63;;
1977;SDS011;989;53.016;8.346;2023-06-22T08:36:03;8.50;;;5.10;;
1977;SDS011;989;53.016;8.346;2023-06-22T08:38:33;9.10;;;4.50;;
1977;SDS011;989;53.016;8.346;2023-06-22T08:40:59;7.90;;;4.93;;
1977;SDS011;989;53.016;8.346;2023-06-22T08:43:25;10.00;;;5.77;;
1977;SDS011;989;53.016;8.346;2023-06-22T08:45:51;7.00;;;4.90;;
1977;SDS011;989;53.016;8.346;2023-06-22T08:48:17;6.63;;;4.30;;
1977;SDS011;989;53.016;8.346;2023-06-22T08:50:44;7.17;;;3.87;;
1977;SDS011;989;53.016;8.346;2023-06-22T08:53:10;10.33;;;4.80;;
1977;SDS011;989;53.016;8.346;2023-06-22T08:55:36;10.53;;;4.70;;
1977;SDS011;989;53.016;8.346;2023-06-22T08:58:02;8.57;;;4.33;;
1977;SDS011;989;53.016;8.346;2023-06-22T09:00:28;8.47;;;5.00;;
1977;SDS011;989;53.016;8.346;2023-06-22T09:02:57;8.60;;;4.43;;
1977;SDS011;989;53.016;8.346;2023-06-22T09:05:24;11.07;;;4.40;;
1977;SDS011;989;53.016;8.346;2023-06-22T09:07:53;6.90;;;4.47;;
1977;SDS011;989;53.016;8.346;2023-06-22T09:10:20;8.17;;;4.40;;
1977;SDS011;989;53.016;8.346;2023-06-22T09:12:46;13.23;;;5.53;;
1977;SDS011;989;53.016;8.346;2023-06-22T09:15:13;9.80;;;5.67;;
1977;SDS011;989;53.016;8.346;2023-06-22T09:17:40;13.17;;;5.40;;
1977;SDS011;989;53.016;8.346;2023-06-22T09:20:06;8.20;;;5.80;;
1977;SDS011;989;53.016;8.346;2023-06-22T09:22:35;12.13;;;6.30;;
1977;SDS011;989;53.016;8.346;2023-06-22T09:25:01;11.10;;;6.10;;
1977;SDS011;989;53.016;8.346;2023-06-22T09:27:28;10.80;;;6.10;;
1977;SDS011;989;53.016;8.346;2023-06-22T09:29:55;11.00;;;6.00;;
1977;SDS011;989;53.016;8.346;2023-06-22T09:32:23;10.10;;;5.77;;
1977;SDS011;989;53.016;8.346;2023-06-22T09:34:50;12.00;;;6.10;;
1977;SDS011;989;53.016;8.346;2023-06-22T09:37:16;9.80;;;4.83;;
1977;SDS011;989;53.016;8.346;2023-06-22T09:39:42;10.50;;;6.53;;
1977;SDS011;989;53.016;8.346;2023-06-22T09:42:08;14.80;;;7.37;;
1977;SDS011;989;53.016;8.346;2023-06-22T09:44:34;11.57;;;6.50;;
1977;SDS011;989;53.016;8.346;2023-06-22T09:47:00;8.50;;;6.20;;
1977;SDS011;989;53.016;8.346;2023-06-22T09:49:27;10.83;;;6.97;;
1977;SDS011;989;53.016;8.346;2023-06-22T09:51:53;10.37;;;6.37;;
1977;SDS011;989;53.016;8.346;2023-06-22T09:54:19;10.47;;;6.60;;
1977;SDS011;989;53.016;8.346;2023-06-22T09:56:45;10.87;;;6.93;;
1977;SDS011;989;53.016;8.346;2023-06-22T09:59:11;12.93;;;5.93;;
1977;SDS011;989;53.016;8.346;2023-06-22T10:01:37;13.43;;;7.70;;
1977;SDS011;989;53.016;8.346;2023-06-22T10:04:03;12.70;;;7.30;;
1977;SDS011;989;53.016;8.346;2023-06-22T10:06:29;13.57;;;7.10;;
1977;SDS011;989;53.016;8.346;2023-06-22T10:08:55;11.90;;;7.53;;
1977;SDS011;989;53.016;8.346;2023-06-22T10:11:21;10.10;;;6.53;;
1977;SDS011;989;53.016;8.346;2023-06-22T10:13:54;14.90;;;7.83;;
1977;SDS011;989;53.016;8.346;2023-06-22T10:16:20;19.77;;;7.37;;
1977;SDS011;989;53.016;8.346;2023-06-22T10:18:46;12.50;;;7.07;;
1977;SDS011;989;53.016;8.346;2023-06-22T10:21:12;11.27;;;5.97;;
1977;SDS011;989;53.016;8.346;2023-06-22T10:23:38;19.00;;;6.47;;
1977;SDS011;989;53.016;8.346;2023-06-22T10:26:04;10.93;;;6.73;;
1977;SDS011;989;53.016;8.346;2023-06-22T10:28:30;10.67;;;6.80;;
1977;SDS011;989;53.016;8.346;2023-06-22T10:30:56;12.80;;;7.57;;
1977;SDS011;989;53.016;8.346;2023-06-22T10:33:22;15.23;;;7.57;;
1977;SDS011;989;53.016;8.346;2023-06-22T10:35:48;15.43;;;6.27;;
1977;SDS011;989;53.016;8.346;2023-06-22T10:38:14;11.77;;;7.47;;
1977;SDS011;989;53.016;8.346;2023-06-22T10:40:41;8.53;;;5.10;;
1977;SDS011;989;53.016;8.346;2023-06-22T10:43:07;10.20;;;5.90;;
1977;SDS011;989;53.016;8.346;2023-06-22T10:45:33;11.33;;;7.20;;
1977;SDS011;989;53.016;8.346;2023-06-22T10:47:59;11.83;;;5.80;;
1977;SDS011;989;53.016;8.346;2023-06-22T10:50:25;10.67;;;4.87;;
1977;SDS011;989;53.016;8.346;2023-06-22T10:52:51;9.57;;;5.87;;
1977;SDS011;989;53.016;8.346;2023-06-22T10:55:18;12.37;;;6.03;;
1977;SDS011;989;53.016;8.346;2023-06-22T10:57:44;11.83;;;7.50;;
1977;SDS011;989;53.016;8.346;2023-06-22T11:00:12;14.50;;;6.83;;
1977;SDS011;989;53.016;8.346;2023-06-22T11:02:38;13.27;;;6.70;;
1977;SDS011;989;53.016;8.346;2023-06-22T11:05:05;8.73;;;6.30;;
1977;SDS011;989;53.016;8.346;2023-06-22T11:07:31;10.30;;;6.53;;
1977;SDS011;989;53.016;8.346;2023-06-22T11:09:57;9.03;;;6.80;;
1977;SDS011;989;53.016;8.346;2023-06-22T11:12:23;14.20;;;6.43;;
1977;SDS011;989;53.016;8.346;2023-06-22T11:14:50;10.73;;;6.50;;
1977;SDS011;989;53.016;8.346;2023-06-22T11:17:17;16.63;;;5.70;;
1977;SDS011;989;53.016;8.346;2023-06-22T11:19:44;12.93;;;6.47;;
1977;SDS011;989;53.016;8.346;2023-06-22T11:22:10;9.80;;;5.90;;
1977;SDS011;989;53.016;8.346;2023-06-22T11:24:36;12.93;;;6.23;;
1977;SDS011;989;53.016;8.346;2023-06-22T11:27:02;8.73;;;6.13;;
1977;SDS011;989;53.016;8.346;2023-06-22T11:29:28;11.30;;;6.37;;
1977;SDS011;989;53.016;8.346;2023-06-22T11:31:55;11.13;;;5.90;;
1977;SDS011;989;53.016;8.346;2023-06-22T11:34:21;9.10;;;5.53;;
1977;SDS011;989;53.016;8.346;2023-06-22T11:36:47;10.93;;;6.80;;
1977;SDS011;989;53.016;8.346;2023-06-22T11:39:14;11.53;;;6.87;;
1977;SDS011;989;53.016;8.346;2023-06-22T11:41:40;9.93;;;5.53;;
1977;SDS011;989;53.016;8.346;2023-06-22T11:44:07;14.03;;;6.40;;
1977;SDS011;989;53.016;8.346;2023-06-22T11:46:33;12.77;;;7.13;;
1977;SDS011;989;53.016;8.346;2023-06-22T11:48:59;10.20;;;6.60;;
1977;SDS011;989;53.016;8.346;2023-06-22T11:51:26;10.00;;;6.10;;
1977;SDS011;989;53.016;8.346;2023-06-22T11:53:53;9.83;;;7.07;;
1977;SDS011;989;53.016;8.346;2023-06-22T11:56:19;15.73;;;8.43;;
1977;SDS011;989;53.016;8.346;2023-06-22T11:58:45;15.10;;;7.73;;
1977;SDS011;989;53.016;8.346;2023-06-22T12:01:11;11.57;;;7.90;;
1977;SDS011;989;53.016;8.346;2023-06-22T12:03:39;12.00;;;6.73;;
1977;SDS011;989;53.016;8.346;2023-06-22T12:06:08;10.40;;;7.03;;
1977;SDS011;989;53.016;8.346;2023-06-22T12:08:34;20.13;;;7.97;;
1977;SDS011;989;53.016;8.346;2023-06-22T12:11:00;13.07;;;7.50;;
1977;SDS011;989;53.016;8.346;2023-06-22T12:13:26;16.10;;;9.43;;
1977;SDS011;989;53.016;8.346;2023-06-22T12:15:52;12.83;;;8.10;;
1977;SDS011;989;53.016;8.346;2023-06-22T12:18:18;11.03;;;7.20;;
1977;SDS011;989;53.016;8.346;2023-06-22T12:20:46;14.70;;;7.30;;
1977;SDS011;989;53.016;8.346;2023-06-22T12:23:12;53.00;;;7.87;;
1977;SDS011;989;53.016;8.346;2023-06-22T12:25:39;12.00;;;7.53;;
1977;SDS011;989;53.016;8.346;2023-06-22T12:28:05;16.13;;;7.83;;
1977;SDS011;989;53.016;8.346;2023-06-22T12:30:34;11.23;;;7.13;;
1977;SDS011;989;53.016;8.346;2023-06-22T12:33:00;12.27;;;6.47;;
1977;SDS011;989;53.016;8.346;2023-06-22T12:35:26;9.23;;;6.90;;
1977;SDS011;989;53.016;8.346;2023-06-22T12:37:52;8.90;;;6.03;;
1977;SDS011;989;53.016;8.346;2023-06-22T12:40:18;13.10;;;8.00;;
1977;SDS011;989;53.016;8.346;2023-06-22T12:42:45;47.23;;;8.20;;
1977;SDS011;989;53.016;8.346;2023-06-22T12:45:11;13.33;;;5.90;;
1977;SDS011;989;53.016;8.346;2023-06-22T12:47:37;11.57;;;7.53;;
1977;SDS011;989;53.016;8.346;2023-06-22T12:50:03;13.63;;;8.00;;
1977;SDS011;989;53.016;8.346;2023-06-22T12:52:30;11.23;;;6.33;;
1977;SDS011;989;53.016;8.346;2023-06-22T12:54:59;10.63;;;7.27;;
1977;SDS011;989;53.016;8.346;2023-06-22T12:57:25;12.70;;;7.00;;
1977;SDS011;989;53.016;8.346;2023-06-22T12:59:51;11.33;;;5.90;;
1977;SDS011;989;53.016;8.346;2023-06-22T13:02:18;14.53;;;7.43;;
1977;SDS011;989;53.016;8.346;2023-06-22T13:04:44;10.63;;;6.60;;
1977;SDS011;989;53.016;8.346;2023-06-22T13:07:11;10.83;;;6.97;;
1977;SDS011;989;53.016;8.346;2023-06-22T13:09:37;10.03;;;7.63;;
1977;SDS011;989;53.016;8.346;2023-06-22T13:12:03;11.90;;;7.70;;
1977;SDS011;989;53.016;8.346;2023-06-22T13:14:30;13.83;;;7.43;;
1977;SDS011;989;53.016;8.346;2023-06-22T13:16:56;12.70;;;8.00;;
1977;SDS011;989;53.016;8.346;2023-06-22T13:19:22;15.23;;;6.50;;
1977;SDS011;989;53.016;8.346;2023-06-22T13:21:48;16.90;;;6.60;;
1977;SDS011;989;53.016;8.346;2023-06-22T13:24:14;10.90;;;6.60;;
1977;SDS011;989;53.016;8.346;2023-06-22T13:26:41;10.23;;;6.60;;
1977;SDS011;989;53.016;8.346;2023-06-22T13:29:07;11.40;;;6.97;;
1977;SDS011;989;53.016;8.346;2023-06-22T13:31:33;12.73;;;7.67;;
1977;SDS011;989;53.016;8.346;2023-06-22T13:33:59;10.80;;;7.77;;
1977;SDS011;989;53.016;8.346;2023-06-22T13:36:25;10.37;;;6.80;;
1977;SDS011;989;53.016;8.346;2023-06-22T13:38:51;14.70;;;6.40;;
1977;SDS011;989;53.016;8.346;2023-06-22T13:41:17;11.93;;;7.53;;
1977;SDS011;989;53.016;8.346;2023-06-22T13:43:43;9.93;;;6.30;;
1977;SDS011;989;53.016;8.346;2023-06-22T13:46:09;9.30;;;6.83;;
1977;SDS011;989;53.016;8.346;2023-06-22T13:48:35;8.27;;;6.07;;
1977;SDS011;989;53.016;8.346;2023-06-22T13:51:01;17.77;;;6.30;;
1977;SDS011;989;53.016;8.346;2023-06-22T13:53:28;19.93;;;6.67;;
1977;SDS011;989;53.016;8.346;2023-06-22T13:55:54;8.77;;;5.93;;
1977;SDS011;989;53.016;8.346;2023-06-22T13:58:20;10.20;;;6.80;;
1977;SDS011;989;53.016;8.346;2023-06-22T14:00:46;11.00;;;7.30;;
1977;SDS011;989;53.016;8.346;2023-06-22T14:03:14;12.87;;;7.47;;
1977;SDS011;989;53.016;8.346;2023-06-22T14:05:41;12.47;;;6.90;;
1977;SDS011;989;53.016;8.346;2023-06-22T14:08:08;15.33;;;5.83;;
1977;SDS011;989;53.016;8.346;2023-06-22T14:10:34;9.03;;;5.80;;
1977;SDS011;989;53.016;8.346;2023-06-22T14:13:00;9.17;;;6.57;;
1977;SDS011;989;53.016;8.346;2023-06-22T14:15:26;13.03;;;7.37;;
1977;SDS011;989;53.016;8.346;2023-06-22T14:17:52;21.97;;;6.57;;
1977;SDS011;989;53.016;8.346;2023-06-22T14:20:18;10.73;;;7.20;;
1977;SDS011;989;53.016;8.346;2023-06-22T14:22:44;14.83;;;6.13;;
1977;SDS011;989;53.016;8.346;2023-06-22T14:25:10;10.70;;;6.47;;
1977;SDS011;989;53.016;8.346;2023-06-22T14:27:36;10.33;;;6.50;;
1977;SDS011;989;53.016;8.346;2023-06-22T14:30:02;11.63;;;8.10;;
1977;SDS011;989;53.016;8.346;2023-06-22T14:32:29;18.93;;;7.90;;
1977;SDS011;989;53.016;8.346;2023-06-22T14:34:55;10.40;;;6.67;;
1977;SDS011;989;53.016;8.346;2023-06-22T14:37:21;9.50;;;6.40;;
1977;SDS011;989;53.016;8.346;2023-06-22T14:39:47;11.83;;;6.50;;
1977;SDS011;989;53.016;8.346;2023-06-22T14:42:13;10.63;;;7.13;;
1977;SDS011;989;53.016;8.346;2023-06-22T14:44:39;11.40;;;7.70;;
1977;SDS011;989;53.016;8.346;2023-06-22T14:47:05;11.50;;;6.80;;
1977;SDS011;989;53.016;8.346;2023-06-22T14:49:31;10.93;;;6.80;;
1977;SDS011;989;53.016;8.346;2023-06-22T14:51:57;15.70;;;8.67;;
1977;SDS011;989;53.016;8.346;2023-06-22T14:54:24;16.07;;;9.20;;
1977;SDS011;989;53.016;8.346;2023-06-22T14:56:50;13.50;;;8.60;;
1977;SDS011;989;53.016;8.346;2023-06-22T14:59:16;11.27;;;8.13;;
1977;SDS011;989;53.016;8.346;2023-06-22T15:01:42;14.60;;;9.30;;
1977;SDS011;989;53.016;8.346;2023-06-22T15:04:08;22.90;;;11.77;;
1977;SDS011;989;53.016;8.346;2023-06-22T15:06:34;15.67;;;10.40;;
1977;SDS011;989;53.016;8.346;2023-06-22T15:09:00;18.70;;;10.57;;
1977;SDS011;989;53.016;8.346;2023-06-22T15:11:26;15.63;;;11.30;;
1977;SDS011;989;53.016;8.346;2023-06-22T15:13:52;15.60;;;10.80;;
1977;SDS011;989;53.016;8.346;2023-06-22T15:16:18;24.60;;;13.07;;